sensor_id;sensor_type;location;lat;lon;timestamp;P1;durP1;ratioP1;P2;durP2;ratioP2
18796;SDS011;9526;52.612;13.300;2023-05-14T00:00:17;22.85;;;16.63;;
18796;SDS011;9526;52.612;13.300;2023-05-14T00:02:43;23.95;;;16.88;;
18796;SDS011;9526;52.612;13.300;2023-05-14T00:05:07;24.15;;;17.25;;
18796;SDS011;9526;52.612;13.300;2023-05-14T00:07:31;24.48;;;16.98;;
18796;SDS011;9526;52.612;13.300;2023-05-14T00:09:55;22.15;;;16.48;;
18796;SDS011;9526;52.612;13.300;2023-05-14T00:12:19;24.52;;;16.35;;
18796;SDS011;9526;52.612;13.300;2023-05-14T00:14:42;24.77;;;17.42;;
18796;SDS011;9526;52.612;13.300;2023-05-14T00:17:06;23.23;;;17.30;;
18796;SDS011;9526;52.612;13.300;2023-05-14T00:19:31;21.40;;;16.55;;
18796;SDS011;9526;52.612;13.300;2023-05-14T00:21:54;20.85;;;15.73;;
18796;SDS011;9526;52.612;13.300;2023-05-14T00:24:18;19.23;;;15.80;;
18796;SDS011;9526;52.612;13.300;2023-05-14T00:26:42;22.00;;;17.40;;
18796;SDS011;9526;52.612;13.300;2023-05-14T00:29:05;21.77;;;16.08;;
18796;SDS011;9526;52.612;13.300;2023-05-14T00:31:29;18.75;;;15.25;;
18796;SDS011;9526;52.612;13.300;2023-05-14T00:33:52;21.02;;;14.48;;
18796;SDS011;9526;52.612;13.300;2023-05-14T00:36:17;22.48;;;15.25;;
18796;SDS011;9526;52.612;13.300;2023-05-14T00:38:41;23.33;;;14.85;;
18796;SDS011;9526;52.612;13.300;2023-05-14T00:41:04;19.05;;;14.45;;
18796;SDS011;9526;52.612;13.300;2023-05-14T00:43:28;21.83;;;14.82;;
18796;SDS011;9526;52.612;13.300;2023-05-14T00:45:53;25.30;;;14.38;;
18796;SDS011;9526;52.612;13.300;2023-05-14T00:48:17;17.77;;;14.63;;
18796;SDS011;9526;52.612;13.300;2023-05-14T00:50:42;20.17;;;13.68;;
18796;SDS011;9526;52.612;13.300;2023-05-14T00:53:07;18.73;;;13.73;;
18796;SDS011;9526;52.612;13.300;2023-05-14T00:55:32;18.27;;;13.88;;
18796;SDS011;9526;52.612;13.300;2023-05-14T00:57:56;17.63;;;13.50;;
18796;SDS011;9526;52.612;13.300;2023-05-14T01:00:21;22.48;;;15.40;;
18796;SDS011;9526;52.612;13.300;2023-05-14T01:02:45;20.33;;;15.70;;
18796;SDS011;9526;52.612;13.300;2023-05-14T01:05:08;18.92;;;13.45;;
18796;SDS011;9526;52.612;13.300;2023-05-14T01:07:32;18.42;;;14.55;;
18796;SDS011;9526;52.612;13.300;2023-05-14T01:10:07;19.15;;;14.77;;
18796;SDS011;9526;52.612;13.300;2023-05-14T01:12:37;17.25;;;14.30;;
18796;SDS011;9526;52.612;13.300;2023-05-14T01:15:07;16.83;;;13.27;;
18796;SDS011;9526;52.612;13.300;2023-05-14T01:17:38;17.77;;;13.50;;
18796;SDS011;9526;52.612;13.300;2023-05-14T01:20:08;24.85;;;17.20;;
18796;SDS011;9526;52.612;13.300;2023-05-14T01:22:34;24.42;;;15.60;;
18796;SDS011;9526;52.612;13.300;2023-05-14T01:24:57;19.05;;;14.45;;
18796;SDS011;9526;52.612;13.300;2023-05-14T01:27:23;17.75;;;13.85;;
18796;SDS011;9526;52.612;13.300;2023-05-14T01:29:55;17.08;;;13.73;;
18796;SDS011;9526;52.612;13.300;2023-05-14T01:32:26;20.85;;;13.73;;
18796;SDS011;9526;52.612;13.300;2023-05-14T01:34:52;19.50;;;13.30;;
18796;SDS011;9526;52.612;13.300;2023-05-14T01:37:18;18.85;;;12.98;;
18796;SDS011;9526;52.612;13.300;2023-05-14T01:39:45;19.45;;;13.23;;
18796;SDS011;9526;52.612;13.300;2023-05-14T01:42:10;15.07;;;12.77;;
18796;SDS011;9526;52.612;13.300;2023-05-14T01:44:34;21.30;;;14.00;;
18796;SDS011;9526;52.612;13.300;2023-05-14T01:46:58;20.23;;;13.73;;
18796;SDS011;9526;52.612;13.300;2023-05-14T01:49:22;16.63;;;13.48;;
18796;SDS011;9526;52.612;13.300;2023-05-14T01:51:45;16.55;;;13.48;;
18796;SDS011;9526;52.612;13.300;2023-05-14T01:54:09;19.38;;;14.88;;
18796;SDS011;9526;52.612;13.300;2023-05-14T01:56:34;18.45;;;13.70;;
18796;SDS011;9526;52.612;13.300;2023-05-14T01:58:57;15.82;;;13.77;;
18796;SDS011;9526;52.612;13.300;2023-05-14T02:01:21;17.38;;;14.27;;
18796;SDS011;9526;52.612;13.300;2023-05-14T02:03:46;23.30;;;15.23;;
18796;SDS011;9526;52.612;13.300;2023-05-14T02:06:10;20.85;;;15.07;;
18796;SDS011;9526;52.612;13.300;2023-05-14T02:08:34;17.15;;;13.73;;
18796;SDS011;9526;52.612;13.300;2023-05-14T02:10:57;23.98;;;14.65;;
18796;SDS011;9526;52.612;13.300;2023-05-14T02:13:23;19.25;;;13.82;;
18796;SDS011;9526;52.612;13.300;2023-05-14T02:15:48;17.50;;;13.88;;
18796;SDS011;9526;52.612;13.300;2023-05-14T02:18:12;19.27;;;15.02;;
18796;SDS011;9526;52.612;13.300;2023-05-14T02:20:35;19.20;;;15.13;;
18796;SDS011;9526;52.612;13.300;2023-05-14T02:22:59;17.77;;;13.52;;
18796;SDS011;9526;52.612;13.300;2023-05-14T02:25:23;18.33;;;15.02;;
18796;SDS011;9526;52.612;13.300;2023-05-14T02:27:46;20.88;;;15.68;;
18796;SDS011;9526;52.612;13.300;2023-05-14T02:30:11;19.90;;;15.20;;
18796;SDS011;9526;52.612;13.300;2023-05-14T02:32:35;22.70;;;14.68;;
18796;SDS011;9526;52.612;13.300;2023-05-14T02:34:59;19.38;;;14.35;;
18796;SDS011;9526;52.612;13.300;2023-05-14T02:37:23;19.05;;;15.00;;
18796;SDS011;9526;52.612;13.300;2023-05-14T02:39:47;20.40;;;14.68;;
18796;SDS011;9526;52.612;13.300;2023-05-14T02:42:11;19.65;;;14.55;;
18796;SDS011;9526;52.612;13.300;2023-05-14T02:44:34;20.75;;;14.38;;
18796;SDS011;9526;52.612;13.300;2023-05-14T02:47:00;19.67;;;13.85;;
18796;SDS011;9526;52.612;13.300;2023-05-14T02:49:23;20.25;;;15.00;;
18796;SDS011;9526;52.612;13.300;2023-05-14T02:51:47;17.38;;;13.75;;
18796;SDS011;9526;52.612;13.300;2023-05-14T02:54:10;15.82;;;13.23;;
18796;SDS011;9526;52.612;13.300;2023-05-14T02:56:36;17.52;;;14.18;;
18796;SDS011;9526;52.612;13.300;2023-05-14T02:59:00;16.70;;;13.75;;
18796;SDS011;9526;52.612;13.300;2023-05-14T03:01:24;15.88;;;12.65;;
18796;SDS011;9526;52.612;13.300;2023-05-14T03:03:49;18.27;;;14.43;;
18796;SDS011;9526;52.612;13.300;2023-05-14T03:06:13;19.40;;;14.40;;
18796;SDS011;9526;52.612;13.300;2023-05-14T03:08:36;17.60;;;12.82;;
18796;SDS011;9526;52.612;13.300;2023-05-14T03:11:00;16.92;;;13.57;;
18796;SDS011;9526;52.612;13.300;2023-05-14T03:13:24;20.83;;;15.00;;
18796;SDS011;9526;52.612;13.300;2023-05-14T03:15:48;19.58;;;14.40;;
18796;SDS011;9526;52.612;13.300;2023-05-14T03:18:15;17.48;;;14.00;;
18796;SDS011;9526;52.612;13.300;2023-05-14T03:20:41;20.60;;;15.20;;
18796;SDS011;9526;52.612;13.300;2023-05-14T03:23:04;18.88;;;13.95;;
18796;SDS011;9526;52.612;13.300;2023-05-14T03:25:28;18.85;;;13.75;;
18796;SDS011;9526;52.612;13.300;2023-05-14T03:27:52;22.63;;;14.40;;
18796;SDS011;9526;52.612;13.300;2023-05-14T03:30:15;17.58;;;14.20;;
18796;SDS011;9526;52.612;13.300;2023-05-14T03:32:39;15.60;;;13.30;;
18796;SDS011;9526;52.612;13.300;2023-05-14T03:35:03;19.52;;;12.82;;
18796;SDS011;9526;52.612;13.300;2023-05-14T03:37:30;18.73;;;13.63;;
18796;SDS011;9526;52.612;13.300;2023-05-14T03:39:53;16.95;;;13.35;;
18796;SDS011;9526;52.612;13.300;2023-05-14T03:42:17;17.48;;;13.82;;
18796;SDS011;9526;52.612;13.300;2023-05-14T03:44:41;18.55;;;14.43;;
18796;SDS011;9526;52.612;13.300;2023-05-14T03:47:05;18.55;;;13.75;;
18796;SDS011;9526;52.612;13.300;2023-05-14T03:49:29;15.57;;;13.45;;
18796;SDS011;9526;52.612;13.300;2023-05-14T03:51:52;18.05;;;13.32;;
18796;SDS011;9526;52.612;13.300;2023-05-14T03:54:17;18.63;;;13.75;;
18796;SDS011;9526;52.612;13.300;2023-05-14T03:56:41;18.27;;;14.00;;
18796;SDS011;9526;52.612;13.300;2023-05-14T03:59:04;16.13;;;13.05;;
18796;SDS011;9526;52.612;13.300;2023-05-14T04:01:28;17.45;;;12.95;;
18796;SDS011;9526;52.612;13.300;2023-05-14T04:03:52;19.95;;;13.55;;
18796;SDS011;9526;52.612;13.300;2023-05-14T04:06:15;15.93;;;13.40;;
18796;SDS011;9526;52.612;13.300;2023-05-14T04:08:39;15.93;;;12.88;;
18796;SDS011;9526;52.612;13.300;2023-05-14T04:11:04;15.27;;;12.38;;
18796;SDS011;9526;52.612;13.300;2023-05-14T04:13:28;15.73;;;12.65;;
18796;SDS011;9526;52.612;13.300;2023-05-14T04:15:52;15.23;;;12.32;;
18796;SDS011;9526;52.612;13.300;2023-05-14T04:18:16;16.40;;;12.05;;
18796;SDS011;9526;52.612;13.300;2023-05-14T04:20:39;19.05;;;13.32;;
18796;SDS011;9526;52.612;13.300;2023-05-14T04:23:03;24.08;;;12.45;;
18796;SDS011;9526;52.612;13.300;2023-05-14T04:25:26;19.30;;;12.40;;
18796;SDS011;9526;52.612;13.300;2023-05-14T04:27:52;16.02;;;11.50;;
18796;SDS011;9526;52.612;13.300;2023-05-14T04:30:16;14.60;;;11.95;;
18796;SDS011;9526;52.612;13.300;2023-05-14T04:32:39;15.27;;;11.82;;
18796;SDS011;9526;52.612;13.300;2023-05-14T04:35:03;17.73;;;11.90;;
18796;SDS011;9526;52.612;13.300;2023-05-14T04:37:28;15.55;;;11.68;;
18796;SDS011;9526;52.612;13.300;2023-05-14T04:39:53;13.68;;;11.20;;
18796;SDS011;9526;52.612;13.300;2023-05-14T04:42:16;14.88;;;11.45;;
18796;SDS011;9526;52.612;13.300;2023-05-14T04:44:41;16.90;;;11.10;;
18796;SDS011;9526;52.612;13.300;2023-05-14T04:47:05;15.15;;;11.15;;
18796;SDS011;9526;52.612;13.300;2023-05-14T04:49:29;17.17;;;11.68;;
18796;SDS011;9526;52.612;13.300;2023-05-14T04:51:53;15.88;;;11.25;;
18796;SDS011;9526;52.612;13.300;2023-05-14T04:54:17;16.52;;;11.18;;
18796;SDS011;9526;52.612;13.300;2023-05-14T04:56:41;16.00;;;11.82;;
18796;SDS011;9526;52.612;13.300;2023-05-14T04:59:05;14.57;;;11.48;;
18796;SDS011;9526;52.612;13.300;2023-05-14T05:01:30;14.40;;;11.07;;
18796;SDS011;9526;52.612;13.300;2023-05-14T05:03:53;14.50;;;10.52;;
18796;SDS011;9526;52.612;13.300;2023-05-14T05:06:18;16.45;;;10.57;;
18796;SDS011;9526;52.612;13.300;2023-05-14T05:08:41;19.42;;;11.10;;
18796;SDS011;9526;52.612;13.300;2023-05-14T05:11:05;15.07;;;11.15;;
18796;SDS011;9526;52.612;13.300;2023-05-14T05:13:28;17.67;;;11.73;;
18796;SDS011;9526;52.612;13.300;2023-05-14T05:15:52;14.70;;;10.23;;
18796;SDS011;9526;52.612;13.300;2023-05-14T05:18:17;12.70;;;9.95;;
18796;SDS011;9526;52.612;13.300;2023-05-14T05:20:41;15.05;;;10.43;;
18796;SDS011;9526;52.612;13.300;2023-05-14T05:23:04;14.35;;;9.82;;
18796;SDS011;9526;52.612;13.300;2023-05-14T05:25:28;13.90;;;9.35;;
18796;SDS011;9526;52.612;13.300;2023-05-14T05:27:52;13.70;;;9.27;;
18796;SDS011;9526;52.612;13.300;2023-05-14T05:30:15;17.42;;;9.88;;
18796;SDS011;9526;52.612;13.300;2023-05-14T05:32:39;11.23;;;8.68;;
18796;SDS011;9526;52.612;13.300;2023-05-14T05:35:05;13.88;;;9.32;;
18796;SDS011;9526;52.612;13.300;2023-05-14T05:37:29;9.85;;;7.97;;
18796;SDS011;9526;52.612;13.300;2023-05-14T05:39:53;13.25;;;9.13;;
18796;SDS011;9526;52.612;13.300;2023-05-14T05:42:17;12.35;;;8.70;;
18796;SDS011;9526;52.612;13.300;2023-05-14T05:44:41;12.48;;;8.60;;
18796;SDS011;9526;52.612;13.300;2023-05-14T05:47:04;12.52;;;8.73;;
18796;SDS011;9526;52.612;13.300;2023-05-14T05:49:28;15.45;;;9.23;;
18796;SDS011;9526;52.612;13.300;2023-05-14T05:51:53;10.93;;;8.63;;
18796;SDS011;9526;52.612;13.300;2023-05-14T05:54:17;13.15;;;8.35;;
18796;SDS011;9526;52.612;13.300;2023-05-14T05:56:40;13.30;;;8.60;;
18796;SDS011;9526;52.612;13.300;2023-05-14T05:59:04;12.25;;;8.65;;
18796;SDS011;9526;52.612;13.300;2023-05-14T06:01:27;11.63;;;8.27;;
18796;SDS011;9526;52.612;13.300;2023-05-14T06:03:51;14.02;;;8.77;;
18796;SDS011;9526;52.612;13.300;2023-05-14T06:06:15;11.88;;;7.63;;
18796;SDS011;9526;52.612;13.300;2023-05-14T06:08:40;8.98;;;7.80;;
18796;SDS011;9526;52.612;13.300;2023-05-14T06:11:04;12.27;;;8.60;;
18796;SDS011;9526;52.612;13.300;2023-05-14T06:13:27;9.38;;;8.38;;
18796;SDS011;9526;52.612;13.300;2023-05-14T06:15:51;10.80;;;7.93;;
18796;SDS011;9526;52.612;13.300;2023-05-14T06:18:14;10.10;;;8.50;;
18796;SDS011;9526;52.612;13.300;2023-05-14T06:20:38;9.10;;;7.43;;
18796;SDS011;9526;52.612;13.300;2023-05-14T06:23:02;11.43;;;7.63;;
18796;SDS011;9526;52.612;13.300;2023-05-14T06:25:27;9.35;;;7.32;;
18796;SDS011;9526;52.612;13.300;2023-05-14T06:27:51;12.60;;;7.70;;
18796;SDS011;9526;52.612;13.300;2023-05-14T06:30:14;12.60;;;7.18;;
18796;SDS011;9526;52.612;13.300;2023-05-14T06:32:38;8.95;;;7.20;;
18796;SDS011;9526;52.612;13.300;2023-05-14T06:35:02;9.93;;;7.03;;
18796;SDS011;9526;52.612;13.300;2023-05-14T06:37:26;7.85;;;6.95;;
18796;SDS011;9526;52.612;13.300;2023-05-14T06:39:50;18.45;;;7.05;;
18796;SDS011;9526;52.612;13.300;2023-05-14T06:42:16;8.68;;;6.53;;
18796;SDS011;9526;52.612;13.300;2023-05-14T06:44:41;11.30;;;7.20;;
18796;SDS011;9526;52.612;13.300;2023-05-14T06:47:05;15.45;;;7.13;;
18796;SDS011;9526;52.612;13.300;2023-05-14T06:49:29;12.52;;;7.28;;
18796;SDS011;9526;52.612;13.300;2023-05-14T06:51:53;13.20;;;7.00;;
18796;SDS011;9526;52.612;13.300;2023-05-14T06:54:17;17.00;;;7.47;;
18796;SDS011;9526;52.612;13.300;2023-05-14T06:56:41;10.45;;;6.60;;
18796;SDS011;9526;52.612;13.300;2023-05-14T06:59:06;13.45;;;6.68;;
18796;SDS011;9526;52.612;13.300;2023-05-14T07:01:29;12.25;;;6.57;;
18796;SDS011;9526;52.612;13.300;2023-05-14T07:03:53;13.13;;;6.82;;
18796;SDS011;9526;52.612;13.300;2023-05-14T07:06:17;14.23;;;7.05;;
18796;SDS011;9526;52.612;13.300;2023-05-14T07:08:41;10.25;;;6.93;;
18796;SDS011;9526;52.612;13.300;2023-05-14T07:11:06;9.23;;;6.82;;
18796;SDS011;9526;52.612;13.300;2023-05-14T07:13:29;15.88;;;7.78;;
18796;SDS011;9526;52.612;13.300;2023-05-14T07:15:54;12.38;;;6.72;;
18796;SDS011;9526;52.612;13.300;2023-05-14T07:18:18;10.50;;;6.90;;
18796;SDS011;9526;52.612;13.300;2023-05-14T07:20:42;8.30;;;6.88;;
18796;SDS011;9526;52.612;13.300;2023-05-14T07:23:05;10.23;;;6.70;;
18796;SDS011;9526;52.612;13.300;2023-05-14T07:25:29;10.68;;;7.28;;
18796;SDS011;9526;52.612;13.300;2023-05-14T07:27:53;12.88;;;6.75;;
18796;SDS011;9526;52.612;13.300;2023-05-14T07:30:16;11.18;;;6.72;;
18796;SDS011;9526;52.612;13.300;2023-05-14T07:32:41;8.93;;;6.68;;
18796;SDS011;9526;52.612;13.300;2023-05-14T07:35:05;10.43;;;6.30;;
18796;SDS011;9526;52.612;13.300;2023-05-14T07:37:30;8.88;;;6.65;;
18796;SDS011;9526;52.612;13.300;2023-05-14T07:39:53;11.02;;;7.05;;
18796;SDS011;9526;52.612;13.300;2023-05-14T07:42:17;13.32;;;7.13;;
18796;SDS011;9526;52.612;13.300;2023-05-14T07:44:56;12.88;;;6.75;;
18796;SDS011;9526;52.612;13.300;2023-05-14T07:47:19;11.93;;;6.95;;
18796;SDS011;9526;52.612;13.300;2023-05-14T07:49:44;10.98;;;6.78;;
18796;SDS011;9526;52.612;13.300;2023-05-14T07:52:08;9.73;;;6.35;;
18796;SDS011;9526;52.612;13.300;2023-05-14T07:54:32;9.30;;;6.38;;
18796;SDS011;9526;52.612;13.300;2023-05-14T07:56:55;9.30;;;6.10;;
18796;SDS011;9526;52.612;13.300;2023-05-14T07:59:19;7.88;;;6.28;;
18796;SDS011;9526;52.612;13.300;2023-05-14T08:01:43;11.20;;;6.50;;
18796;SDS011;9526;52.612;13.300;2023-05-14T08:04:06;16.48;;;6.00;;
18796;SDS011;9526;52.612;13.300;2023-05-14T08:06:34;9.48;;;6.22;;
18796;SDS011;9526;52.612;13.300;2023-05-14T08:08:58;10.40;;;6.32;;
18796;SDS011;9526;52.612;13.300;2023-05-14T08:11:21;13.40;;;5.93;;
18796;SDS011;9526;52.612;13.300;2023-05-14T08:13:45;13.60;;;6.05;;
18796;SDS011;9526;52.612;13.300;2023-05-14T08:16:09;7.93;;;5.78;;
18796;SDS011;9526;52.612;13.300;2023-05-14T08:18:32;12.23;;;5.80;;
18796;SDS011;9526;52.612;13.300;2023-05-14T08:20:56;12.65;;;5.85;;
18796;SDS011;9526;52.612;13.300;2023-05-14T08:23:21;12.77;;;6.30;;
18796;SDS011;9526;52.612;13.300;2023-05-14T08:25:44;12.00;;;5.97;;
18796;SDS011;9526;52.612;13.300;2023-05-14T08:28:08;9.57;;;5.55;;
18796;SDS011;9526;52.612;13.300;2023-05-14T08:30:32;10.02;;;5.68;;
18796;SDS011;9526;52.612;13.300;2023-05-14T08:32:56;8.18;;;5.00;;
18796;SDS011;9526;52.612;13.300;2023-05-14T08:35:20;9.15;;;4.95;;
18796;SDS011;9526;52.612;13.300;2023-05-14T08:37:44;6.88;;;5.30;;
18796;SDS011;9526;52.612;13.300;2023-05-14T08:40:09;9.73;;;5.88;;
18796;SDS011;9526;52.612;13.300;2023-05-14T08:42:34;14.20;;;5.78;;
18796;SDS011;9526;52.612;13.300;2023-05-14T08:45:01;6.55;;;4.90;;
18796;SDS011;9526;52.612;13.300;2023-05-14T08:47:27;6.95;;;5.47;;
18796;SDS011;9526;52.612;13.300;2023-05-14T08:49:53;8.60;;;5.28;;
18796;SDS011;9526;52.612;13.300;2023-05-14T08:52:24;7.38;;;5.40;;
18796;SDS011;9526;52.612;13.300;2023-05-14T08:54:48;8.95;;;5.38;;
18796;SDS011;9526;52.612;13.300;2023-05-14T08:57:16;8.20;;;5.45;;
18796;SDS011;9526;52.612;13.300;2023-05-14T08:59:45;10.70;;;5.28;;
18796;SDS011;9526;52.612;13.300;2023-05-14T09:02:08;9.88;;;5.43;;
18796;SDS011;9526;52.612;13.300;2023-05-14T09:04:38;9.13;;;4.47;;
18796;SDS011;9526;52.612;13.300;2023-05-14T09:07:03;6.90;;;4.55;;
18796;SDS011;9526;52.612;13.300;2023-05-14T09:09:27;8.43;;;4.97;;
18796;SDS011;9526;52.612;13.300;2023-05-14T09:11:52;6.25;;;4.90;;
18796;SDS011;9526;52.612;13.300;2023-05-14T09:14:18;7.55;;;4.63;;
18796;SDS011;9526;52.612;13.300;2023-05-14T09:16:42;9.80;;;4.75;;
18796;SDS011;9526;52.612;13.300;2023-05-14T09:19:08;10.07;;;5.07;;
18796;SDS011;9526;52.612;13.300;2023-05-14T09:21:33;5.47;;;4.60;;
18796;SDS011;9526;52.612;13.300;2023-05-14T09:23:57;7.32;;;4.90;;
18796;SDS011;9526;52.612;13.300;2023-05-14T09:26:22;5.70;;;4.50;;
18796;SDS011;9526;52.612;13.300;2023-05-14T09:28:47;6.03;;;4.57;;
18796;SDS011;9526;52.612;13.300;2023-05-14T09:31:12;11.60;;;4.70;;
18796;SDS011;9526;52.612;13.300;2023-05-14T09:33:36;5.90;;;3.85;;
18796;SDS011;9526;52.612;13.300;2023-05-14T09:36:00;8.60;;;4.45;;
18796;SDS011;9526;52.612;13.300;2023-05-14T09:38:26;7.53;;;4.43;;
18796;SDS011;9526;52.612;13.300;2023-05-14T09:40:51;5.43;;;4.13;;
18796;SDS011;9526;52.612;13.300;2023-05-14T09:43:14;8.55;;;4.05;;
18796;SDS011;9526;52.612;13.300;2023-05-14T09:45:39;6.75;;;4.07;;
18796;SDS011;9526;52.612;13.300;2023-05-14T09:48:04;4.78;;;3.72;;
18796;SDS011;9526;52.612;13.300;2023-05-14T09:50:30;6.30;;;4.03;;
18796;SDS011;9526;52.612;13.300;2023-05-14T09:52:54;6.07;;;3.72;;
18796;SDS011;9526;52.612;13.300;2023-05-14T09:55:17;7.07;;;3.78;;
18796;SDS011;9526;52.612;13.300;2023-05-14T09:57:42;4.70;;;3.95;;
18796;SDS011;9526;52.612;13.300;2023-05-14T10:00:06;7.07;;;3.92;;
18796;SDS011;9526;52.612;13.300;2023-05-14T10:02:34;6.28;;;3.60;;
18796;SDS011;9526;52.612;13.300;2023-05-14T10:05:03;6.22;;;3.78;;
18796;SDS011;9526;52.612;13.300;2023-05-14T10:07:30;4.63;;;3.33;;
18796;SDS011;9526;52.612;13.300;2023-05-14T10:10:00;8.13;;;3.83;;
18796;SDS011;9526;52.612;13.300;2023-05-14T10:12:26;10.82;;;3.90;;
18796;SDS011;9526;52.612;13.300;2023-05-14T10:14:55;5.43;;;3.35;;
18796;SDS011;9526;52.612;13.300;2023-05-14T10:17:21;6.18;;;3.67;;
18796;SDS011;9526;52.612;13.300;2023-05-14T10:19:51;5.40;;;3.47;;
18796;SDS011;9526;52.612;13.300;2023-05-14T10:22:18;7.63;;;3.42;;
18796;SDS011;9526;52.612;13.300;2023-05-14T10:24:45;4.72;;;3.40;;
18796;SDS011;9526;52.612;13.300;2023-05-14T10:27:12;5.82;;;3.63;;
18796;SDS011;9526;52.612;13.300;2023-05-14T10:29:37;9.43;;;3.67;;
18796;SDS011;9526;52.612;13.300;2023-05-14T10:32:03;4.63;;;3.40;;
18796;SDS011;9526;52.612;13.300;2023-05-14T10:34:32;7.93;;;3.50;;
18796;SDS011;9526;52.612;13.300;2023-05-14T10:36:59;7.43;;;3.75;;
18796;SDS011;9526;52.612;13.300;2023-05-14T10:39:30;9.02;;;4.00;;
18796;SDS011;9526;52.612;13.300;2023-05-14T10:42:07;7.70;;;3.42;;
18796;SDS011;9526;52.612;13.300;2023-05-14T10:44:32;5.25;;;3.65;;
18796;SDS011;9526;52.612;13.300;2023-05-14T10:46:57;5.93;;;3.40;;
18796;SDS011;9526;52.612;13.300;2023-05-14T10:49:21;7.35;;;3.60;;
18796;SDS011;9526;52.612;13.300;2023-05-14T10:52:06;7.80;;;3.75;;
18796;SDS011;9526;52.612;13.300;2023-05-14T10:54:31;7.35;;;3.60;;
18796;SDS011;9526;52.612;13.300;2023-05-14T10:56:58;3.90;;;3.47;;
18796;SDS011;9526;52.612;13.300;2023-05-14T10:59:24;9.23;;;3.40;;
18796;SDS011;9526;52.612;13.300;2023-05-14T11:01:49;8.05;;;3.80;;
18796;SDS011;9526;52.612;13.300;2023-05-14T11:04:16;6.63;;;3.60;;
18796;SDS011;9526;52.612;13.300;2023-05-14T11:06:40;7.88;;;4.30;;
18796;SDS011;9526;52.612;13.300;2023-05-14T11:09:05;6.03;;;3.60;;
18796;SDS011;9526;52.612;13.300;2023-05-14T11:11:30;8.40;;;4.40;;
18796;SDS011;9526;52.612;13.300;2023-05-14T11:13:54;8.38;;;3.90;;
18796;SDS011;9526;52.612;13.300;2023-05-14T11:16:19;7.30;;;3.75;;
18796;SDS011;9526;52.612;13.300;2023-05-14T11:18:44;7.97;;;4.47;;
18796;SDS011;9526;52.612;13.300;2023-05-14T11:21:08;6.32;;;4.00;;
18796;SDS011;9526;52.612;13.300;2023-05-14T11:23:32;9.32;;;3.80;;
18796;SDS011;9526;52.612;13.300;2023-05-14T11:25:56;5.75;;;4.10;;
18796;SDS011;9526;52.612;13.300;2023-05-14T11:28:21;8.65;;;4.65;;
18796;SDS011;9526;52.612;13.300;2023-05-14T11:30:46;6.25;;;3.83;;
18796;SDS011;9526;52.612;13.300;2023-05-14T11:33:10;6.82;;;4.15;;
18796;SDS011;9526;52.612;13.300;2023-05-14T11:35:34;12.52;;;4.70;;
18796;SDS011;9526;52.612;13.300;2023-05-14T11:37:58;6.53;;;4.05;;
18796;SDS011;9526;52.612;13.300;2023-05-14T11:40:21;6.93;;;4.28;;
18796;SDS011;9526;52.612;13.300;2023-05-14T11:42:45;8.35;;;4.70;;
18796;SDS011;9526;52.612;13.300;2023-05-14T11:45:22;4.68;;;4.00;;
18796;SDS011;9526;52.612;13.300;2023-05-14T11:47:46;6.95;;;4.10;;
18796;SDS011;9526;52.612;13.300;2023-05-14T11:50:10;5.78;;;4.55;;
18796;SDS011;9526;52.612;13.300;2023-05-14T11:52:35;6.25;;;3.95;;
18796;SDS011;9526;52.612;13.300;2023-05-14T11:55:02;10.75;;;5.00;;
18796;SDS011;9526;52.612;13.300;2023-05-14T11:57:27;6.78;;;4.07;;
18796;SDS011;9526;52.612;13.300;2023-05-14T11:59:54;6.07;;;4.05;;
18796;SDS011;9526;52.612;13.300;2023-05-14T12:02:20;6.00;;;4.22;;
18796;SDS011;9526;52.612;13.300;2023-05-14T12:04:48;6.65;;;3.97;;
18796;SDS011;9526;52.612;13.300;2023-05-14T12:07:14;9.43;;;4.20;;
18796;SDS011;9526;52.612;13.300;2023-05-14T12:09:41;5.70;;;4.13;;
18796;SDS011;9526;52.612;13.300;2023-05-14T12:12:10;11.52;;;4.38;;
18796;SDS011;9526;52.612;13.300;2023-05-14T12:14:35;6.53;;;4.40;;
18796;SDS011;9526;52.612;13.300;2023-05-14T12:17:01;8.93;;;4.53;;
18796;SDS011;9526;52.612;13.300;2023-05-14T12:19:26;7.40;;;4.53;;
18796;SDS011;9526;52.612;13.300;2023-05-14T12:21:52;7.82;;;4.38;;
18796;SDS011;9526;52.612;13.300;2023-05-14T12:24:16;10.18;;;4.43;;
18796;SDS011;9526;52.612;13.300;2023-05-14T12:26:42;6.32;;;4.57;;
18796;SDS011;9526;52.612;13.300;2023-05-14T12:29:06;7.65;;;4.30;;
18796;SDS011;9526;52.612;13.300;2023-05-14T12:31:30;6.50;;;4.38;;
18796;SDS011;9526;52.612;13.300;2023-05-14T12:33:55;9.25;;;4.47;;
18796;SDS011;9526;52.612;13.300;2023-05-14T12:36:20;9.13;;;4.80;;
18796;SDS011;9526;52.612;13.300;2023-05-14T12:38:44;6.00;;;4.72;;
18796;SDS011;9526;52.612;13.300;2023-05-14T12:41:07;9.35;;;5.60;;
18796;SDS011;9526;52.612;13.300;2023-05-14T12:43:31;7.47;;;5.72;;
18796;SDS011;9526;52.612;13.300;2023-05-14T12:45:54;13.48;;;7.70;;
18796;SDS011;9526;52.612;13.300;2023-05-14T12:48:18;10.43;;;7.03;;
18796;SDS011;9526;52.612;13.300;2023-05-14T12:50:42;7.32;;;4.57;;
18796;SDS011;9526;52.612;13.300;2023-05-14T12:53:07;10.05;;;4.25;;
18796;SDS011;9526;52.612;13.300;2023-05-14T12:55:31;8.10;;;4.90;;
18796;SDS011;9526;52.612;13.300;2023-05-14T12:57:55;7.28;;;4.43;;
18796;SDS011;9526;52.612;13.300;2023-05-14T13:00:19;7.60;;;4.63;;
18796;SDS011;9526;52.612;13.300;2023-05-14T13:02:43;6.68;;;4.45;;
18796;SDS011;9526;52.612;13.300;2023-05-14T13:05:07;7.40;;;4.43;;
18796;SDS011;9526;52.612;13.300;2023-05-14T13:07:31;9.10;;;4.60;;
18796;SDS011;9526;52.612;13.300;2023-05-14T13:09:56;6.22;;;4.32;;
18796;SDS011;9526;52.612;13.300;2023-05-14T13:12:20;7.13;;;4.63;;
18796;SDS011;9526;52.612;13.300;2023-05-14T13:14:44;10.05;;;4.30;;
18796;SDS011;9526;52.612;13.300;2023-05-14T13:17:08;7.68;;;4.40;;
18796;SDS011;9526;52.612;13.300;2023-05-14T13:19:31;5.97;;;3.78;;
18796;SDS011;9526;52.612;13.300;2023-05-14T13:21:55;8.77;;;4.05;;
18796;SDS011;9526;52.612;13.300;2023-05-14T13:24:18;9.05;;;4.30;;
18796;SDS011;9526;52.612;13.300;2023-05-14T13:26:43;6.68;;;3.90;;
18796;SDS011;9526;52.612;13.300;2023-05-14T13:29:07;7.22;;;4.18;;
18796;SDS011;9526;52.612;13.300;2023-05-14T13:31:31;11.27;;;4.70;;
18796;SDS011;9526;52.612;13.300;2023-05-14T13:33:55;6.82;;;4.22;;
18796;SDS011;9526;52.612;13.300;2023-05-14T13:36:19;8.52;;;3.92;;
18796;SDS011;9526;52.612;13.300;2023-05-14T13:38:43;7.80;;;4.00;;
18796;SDS011;9526;52.612;13.300;2023-05-14T13:41:07;7.10;;;4.00;;
18796;SDS011;9526;52.612;13.300;2023-05-14T13:43:32;6.75;;;3.92;;
18796;SDS011;9526;52.612;13.300;2023-05-14T13:45:57;8.07;;;4.07;;
18796;SDS011;9526;52.612;13.300;2023-05-14T13:48:21;6.32;;;3.90;;
18796;SDS011;9526;52.612;13.300;2023-05-14T13:50:45;6.05;;;3.60;;
18796;SDS011;9526;52.612;13.300;2023-05-14T13:53:09;7.82;;;3.92;;
18796;SDS011;9526;52.612;13.300;2023-05-14T13:55:32;8.80;;;3.90;;
18796;SDS011;9526;52.612;13.300;2023-05-14T13:57:56;7.32;;;3.58;;
18796;SDS011;9526;52.612;13.300;2023-05-14T14:00:22;9.05;;;3.55;;
18796;SDS011;9526;52.612;13.300;2023-05-14T14:02:47;5.57;;;3.60;;
18796;SDS011;9526;52.612;13.300;2023-05-14T14:05:11;7.03;;;3.60;;
18796;SDS011;9526;52.612;13.300;2023-05-14T14:07:34;6.10;;;3.90;;
18796;SDS011;9526;52.612;13.300;2023-05-14T14:09:59;8.20;;;4.15;;
18796;SDS011;9526;52.612;13.300;2023-05-14T14:12:23;5.88;;;3.88;;
18796;SDS011;9526;52.612;13.300;2023-05-14T14:14:47;5.60;;;3.70;;
18796;SDS011;9526;52.612;13.300;2023-05-14T14:17:13;6.85;;;3.97;;
18796;SDS011;9526;52.612;13.300;2023-05-14T14:19:37;18.33;;;8.18;;